Time;durP1;ratioP1;P1;durP2;ratioP2;P2;SDS_P1;SDS_P2;PMS_P1;PMS_P2;Temp;Humidity;BMP_temperature;BMP_pressure;BME280_temperature;BME280_humidity;BME280_pressure;Samples;Min_cycle;Max_cycle;Signal;HPM_P1;HPM_P2
2022/08/08 00:00:18;;;;;;;13.83;9.53;;;;;;;21.30;77.35;97018.59;6174171;22;20168;-74
2022/08/08 00:03:07;;;;;;;12.97;9.37;;;;;;;21.22;77.74;97017.63;6148091;22;20170;-74
2022/08/08 00:06:04;;;;;;;10.53;8.97;;;;;;;21.32;77.47;97023.72;6174122;22;20533;-74
2022/08/08 00:09:12;;;;;;;12.20;9.50;;;;;;;21.31;77.49;97022.09;6174396;22;20192;-75
2022/08/08 00:11:45;;;;;;;12.07;9.57;;;;;;;21.37;77.03;97027.63;6070840;22;20627;-73
2022/08/08 00:14:48;;;;;;;10.50;8.90;;;;;;;21.42;77.05;97024.56;6152404;22;20167;-74
2022/08/08 00:17:47;;;;;;;10.67;9.00;;;;;;;21.50;76.45;97024.72;6174142;22;20632;-73
2022/08/08 00:20:46;;;;;;;11.07;8.43;;;;;;;21.56;76.19;97021.53;6174131;22;20187;-74
2022/08/08 00:23:39;;;;;;;14.27;8.37;;;;;;;21.37;76.76;97032.06;6148118;22;20168;-74
2022/08/08 00:26:24;;;;;;;10.53;9.13;;;;;;;20.92;77.67;96981.59;6174118;22;21173;-74
2022/08/08 00:29:04;;;;;;;9.23;7.80;;;;;;;21.30;77.78;97021.25;6174328;22;20609;-74
2022/08/08 00:31:40;;;;;;;10.60;8.87;;;;;;;21.47;77.24;97019.75;6147594;22;20496;-71
2022/08/08 00:37:26;;;;;;;9.80;7.57;;;;;;;21.53;77.04;97032.38;6174425;22;20648;-71
2022/08/08 00:40:54;;;;;;;9.30;8.17;;;;;;;21.54;75.96;97029.59;6174266;22;20184;-71
2022/08/08 00:44:25;;;;;;;10.03;7.70;;;;;;;21.64;75.84;97030.41;6108583;23;20176;-73
2022/08/08 00:46:55;;;;;;;9.90;7.17;;;;;;;21.52;75.80;97034.16;6149465;22;20180;-73
2022/08/08 00:49:37;;;;;;;12.43;7.93;;;;;;;21.46;76.06;97025.97;6148094;22;20255;-72
2022/08/08 00:52:31;;;;;;;9.83;7.40;;;;;;;21.45;76.18;97025.13;6173920;22;20172;-72
2022/08/08 00:55:13;;;;;;;11.50;8.03;;;;;;;21.34;76.10;97035.81;6200685;22;20205;-74
2022/08/08 00:58:03;;;;;;;7.97;7.03;;;;;;;21.52;75.88;97030.69;6303971;22;20270;-74
2022/08/08 01:01:11;;;;;;;10.53;8.10;;;;;;;21.50;75.98;97037.91;6303673;22;20213;-74
2022/08/08 01:04:06;;;;;;;8.87;7.50;;;;;;;21.51;76.15;97035.16;6277778;22;20867;-74
2022/08/08 01:07:22;;;;;;;12.63;8.63;;;;;;;21.50;75.45;97035.25;6254210;22;20695;-75
2022/08/08 01:10:30;;;;;;;12.10;7.33;;;;;;;21.39;75.34;97027.50;6149976;23;20315;-74
2022/08/08 01:14:06;;;;;;;12.23;6.77;;;;;;;21.52;73.78;97025.41;6200388;23;20733;-72
2022/08/08 01:17:17;;;;;;;9.73;7.70;;;;;;;21.42;75.28;97027.22;6150120;23;20172;-74
2022/08/08 01:20:29;;;;;;;9.07;8.00;;;;;;;21.42;75.36;97019.31;6096773;23;20217;-74
2022/08/08 01:23:38;;;;;;;7.53;6.77;;;;;;;21.42;75.08;97020.16;6303137;22;20638;-71
2022/08/08 01:26:32;;;;;;;7.30;5.57;;;;;;;21.54;70.38;97007.66;6303215;22;20164;-71
2022/08/08 01:29:20;;;;;;;6.93;6.20;;;;;;;21.93;69.95;97009.34;6331395;22;20692;-71
2022/08/08 01:32:24;;;;;;;12.07;7.07;;;;;;;21.95;71.62;97007.41;6303362;22;20168;-71
2022/08/08 01:35:30;;;;;;;9.33;7.03;;;;;;;21.88;71.28;97008.09;6304575;22;20170;-71
2022/08/08 01:38:40;;;;;;;10.07;7.27;;;;;;;21.90;70.96;97020.19;6303659;22;20182;-71
2022/08/08 01:41:30;;;;;;;9.43;7.27;;;;;;;21.58;73.60;97017.78;6329881;22;20206;-71
2022/08/08 01:44:28;;;;;;;9.80;6.47;;;;;;;21.52;73.04;97026.25;6305412;22;20188;-71
2022/08/08 01:47:19;;;;;;;8.97;7.53;;;;;;;21.35;73.88;97007.66;6305815;22;20214;-73
2022/08/08 01:50:44;;;;;;;13.60;7.57;;;;;;;21.39;73.48;97019.59;6305572;22;20163;-73
2022/08/08 01:53:41;;;;;;;8.57;7.20;;;;;;;21.56;72.64;97013.63;6306825;22;20577;-73
2022/08/08 01:56:39;;;;;;;9.27;7.10;;;;;;;21.40;72.88;97014.19;6330577;22;20566;-75
2022/08/08 01:59:17;;;;;;;9.10;7.03;;;;;;;21.38;72.16;97023.19;6305825;22;20389;-72
2022/08/08 02:01:59;;;;;;;18.57;8.20;;;;;;;21.30;72.62;97018.59;6333050;22;20164;-74
2022/08/08 02:04:35;;;;;;;10.03;8.27;;;;;;;21.37;72.44;97018.91;6305154;22;20196;-72
2022/08/08 02:07:22;;;;;;;10.17;6.83;;;;;;;21.52;71.60;97025.41;6279416;22;20198;-72
2022/08/08 02:10:19;;;;;;;8.83;7.60;;;;;;;21.32;71.91;97021.09;6279379;22;20512;-74
2022/08/08 02:13:11;;;;;;;11.17;7.77;;;;;;;21.37;72.91;97017.06;6305363;22;20163;-73
2022/08/08 02:16:05;;;;;;;11.83;8.07;;;;;;;20.99;74.46;97024.88;6305350;22;20159;-73
2022/08/08 02:18:42;;;;;;;9.63;7.57;;;;;;;21.13;73.77;97028.94;6332663;22;20164;-73
2022/08/08 02:24:28;;;;;;;8.67;6.90;;;;;;;21.17;72.95;97011.91;6305488;22;20277;-73
2022/08/08 02:27:25;;;;;;;11.53;7.47;;;;;;;21.33;72.00;97013.03;6254459;22;20195;-73
2022/08/08 02:30:19;;;;;;;10.90;8.57;;;;;;;21.30;72.67;97021.25;6305738;22;20242;-73
2022/08/08 02:33:23;;;;;;;8.70;7.80;;;;;;;21.14;72.76;97009.56;6279109;22;20174;-74
2022/08/08 02:36:37;;;;;;;11.70;7.53;;;;;;;21.14;73.76;97022.72;6305083;22;20167;-73
2022/08/08 02:39:35;;;;;;;15.97;7.70;;;;;;;21.14;73.99;97020.94;6305586;22;20198;-73
2022/08/08 02:42:28;;;;;;;8.00;7.20;;;;;;;21.21;73.63;97024.69;6305386;22;20164;-74
2022/08/08 02:45:39;;;;;;;8.77;7.23;;;;;;;21.24;73.19;97023.59;6304814;22;20595;-74
2022/08/08 02:48:49;;;;;;;17.47;8.03;;;;;;;21.31;72.42;97022.88;6282857;22;20163;-74
2022/08/08 02:52:12;;;;;;;11.87;7.47;;;;;;;21.16;73.17;97028.69;6305468;22;20528;-74
2022/08/08 02:55:37;;;;;;;8.47;7.13;;;;;;;20.98;73.88;97039.84;6264994;22;20207;-73
2022/08/08 02:58:32;;;;;;;10.93;7.27;;;;;;;20.95;74.18;97029.59;6197714;23;20593;-74
2022/08/08 03:01:34;;;;;;;9.27;7.77;;;;;;;21.00;74.04;97044.97;6149371;22;20171;-74
2022/08/08 03:04:38;;;;;;;12.67;8.17;;;;;;;20.89;74.85;97035.38;6173143;23;20197;-74
2022/08/08 03:08:08;;;;;;;11.40;8.57;;;;;;;21.05;73.67;97043.66;6173100;23;20201;-74
2022/08/08 03:11:18;;;;;;;11.10;7.80;;;;;;;20.72;74.26;97016.75;6172911;22;20175;-74
2022/08/08 03:14:50;;;;;;;11.33;7.93;;;;;;;20.85;74.77;97034.00;6148677;22;20497;-74
2022/08/08 03:18:04;;;;;;;12.17;8.20;;;;;;;20.82;74.44;97025.50;6173081;22;20166;-72
2022/08/08 03:23:42;;;;;;;12.23;8.40;;;;;;;21.01;73.36;97052.75;6173080;23;20250;-73
2022/08/08 03:26:34;;;;;;;14.70;7.90;;;;;;;21.01;73.23;97041.38;6197737;23;20258;-74
2022/08/08 03:29:16;;;;;;;11.57;7.73;;;;;;;21.13;72.57;97055.28;6172936;23;20167;-74
2022/08/08 03:34:56;;;;;;;16.23;7.90;;;;;;;21.25;71.66;97057.69;6172841;23;20242;-71
2022/08/08 03:37:24;;;;;;;14.80;8.03;;;;;;;21.21;71.38;97050.19;6172520;23;20551;-68
2022/08/08 03:40:12;;;;;;;8.57;7.23;;;;;;;21.18;71.51;97059.22;6173053;23;20170;-71
2022/08/08 03:43:05;;;;;;;10.87;9.17;;;;;;;21.40;70.81;97063.41;6172609;23;20190;-72
2022/08/08 03:45:49;;;;;;;13.00;7.53;;;;;;;21.67;70.08;97066.22;6174164;23;20201;-71
2022/08/08 03:48:36;;;;;;;11.43;7.10;;;;;;;21.98;68.16;97062.50;6172868;23;20164;-71
2022/08/08 03:51:27;;;;;;;9.00;7.13;;;;;;;22.33;66.51;97070.66;6174486;23;20560;-71
2022/08/08 03:54:14;;;;;;;7.13;6.37;;;;;;;22.31;66.96;97066.50;6172581;23;20167;-74
2022/08/08 03:57:01;;;;;;;10.33;7.43;;;;;;;22.37;66.67;97061.50;6172554;23;20251;-74
2022/08/08 03:59:48;;;;;;;10.77;7.23;;;;;;;22.61;65.52;97074.22;6147426;22;20521;-73
2022/08/08 04:02:38;;;;;;;10.97;7.57;;;;;;;22.73;65.19;97061.72;6172669;23;20218;-74
2022/08/08 04:05:20;;;;;;;12.57;7.13;;;;;;;23.00;64.68;97064.38;6171785;23;20194;-71
2022/08/08 04:07:58;;;;;;;9.03;6.97;;;;;;;22.72;65.39;97060.88;6172051;23;20181;-71
2022/08/08 04:10:29;;;;;;;10.40;6.53;;;;;;;22.77;65.61;97069.22;6147918;23;20199;-72
2022/08/08 04:13:01;;;;;;;8.80;6.17;;;;;;;23.02;64.79;97065.06;6172267;23;20208;-72
2022/08/08 04:15:48;;;;;;;12.27;6.90;;;;;;;23.62;63.03;97066.28;6233580;22;20174;-73
2022/08/08 04:18:33;;;;;;;10.10;7.17;;;;;;;23.91;62.79;97078.31;6197758;23;20187;-74
2022/08/08 04:21:18;;;;;;;11.50;7.30;;;;;;;23.86;62.69;97079.75;6172358;23;20192;-75
2022/08/08 04:23:52;;;;;;;10.43;7.27;;;;;;;24.15;61.32;97069.78;6147517;22;20175;-74
2022/08/08 04:27:19;;;;;;;9.27;6.90;;;;;;;24.07;61.70;97073.19;6173152;23;20164;-73
2022/08/08 04:30:40;;;;;;;12.20;6.90;;;;;;;24.23;61.32;97067.22;6196150;23;20218;-75
2022/08/08 04:33:21;;;;;;;13.37;7.50;;;;;;;24.11;61.95;97087.78;6197101;23;20172;-73
2022/08/08 04:35:49;;;;;;;9.77;6.53;;;;;;;24.11;62.27;97077.19;6148228;23;20234;-75
2022/08/08 04:38:20;;;;;;;11.60;7.73;;;;;;;24.57;60.84;97086.66;6172519;23;20166;-75
2022/08/08 04:40:50;;;;;;;13.30;7.30;;;;;;;24.96;59.92;97077.31;6174728;23;20182;-74
2022/08/08 04:43:22;;;;;;;9.90;7.37;;;;;;;24.82;59.16;97095.63;6172375;23;20181;-74
2022/08/08 04:46:10;;;;;;;10.63;7.23;;;;;;;24.44;60.87;97093.34;6197176;23;20560;-75
2022/08/08 04:48:42;;;;;;;15.00;7.87;;;;;;;24.68;59.92;97080.25;6172715;23;20162;-75
2022/08/08 04:51:09;;;;;;;13.13;7.47;;;;;;;25.14;58.51;97092.31;6171437;23;20162;-74
2022/08/08 04:53:36;;;;;;;13.43;7.33;;;;;;;25.35;57.17;97093.56;6173165;23;20574;-74
2022/08/08 04:56:23;;;;;;;20.93;8.50;;;;;;;25.50;58.00;97094.66;6258569;22;20198;-74
2022/08/08 04:58:52;;;;;;;17.50;8.30;;;;;;;25.33;58.49;97095.53;6173279;22;20191;-74
2022/08/08 05:01:19;;;;;;;13.53;8.13;;;;;;;25.29;58.13;97098.66;6303034;22;20192;-75
2022/08/08 05:04:29;;;;;;;14.73;8.47;;;;;;;25.70;57.15;97082.75;6276722;22;20167;-73
2022/08/08 05:07:50;;;;;;;16.00;7.77;;;;;;;25.67;57.21;97101.66;6275745;22;20227;-73
2022/08/08 05:11:13;;;;;;;13.90;7.60;;;;;;;26.03;56.57;97099.56;6275403;22;20178;-75
2022/08/08 05:13:58;;;;;;;19.10;7.30;;;;;;;26.10;55.75;97075.88;6302065;22;20371;-74
2022/08/08 05:16:31;;;;;;;11.27;6.77;;;;;;;26.18;55.59;97102.44;6302843;22;20166;-75
2022/08/08 05:19:21;;;;;;;9.83;7.73;;;;;;;26.42;54.59;97099.81;6277038;22;20178;-74
2022/08/08 05:22:10;;;;;;;10.77;6.77;;;;;;;26.66;53.73;97102.44;6276793;22;20202;-75
2022/08/08 05:24:43;;;;;;;13.90;7.70;;;;;;;26.86;54.87;97114.38;6173517;22;20273;-74
2022/08/08 05:27:15;;;;;;;16.07;7.20;;;;;;;27.08;53.34;97105.69;6276791;22;20499;-75
2022/08/08 05:29:47;;;;;;;15.07;7.13;;;;;;;27.25;52.70;97107.28;6276965;22;20573;-73
2022/08/08 05:32:21;;;;;;;11.67;6.90;;;;;;;27.35;52.53;97110.63;6276911;22;20174;-72
2022/08/08 05:34:58;;;;;;;12.37;7.70;;;;;;;27.33;53.40;97112.59;6302518;22;20163;-75
2022/08/08 05:37:38;;;;;;;19.67;11.10;;;;;;;27.16;52.87;97110.16;6228208;22;20642;-76
2022/08/08 05:40:48;;;;;;;11.33;7.77;;;;;;;27.33;53.19;97103.75;6274733;22;20701;-76
2022/08/08 05:43:28;;;;;;;10.43;6.70;;;;;;;27.45;52.85;97107.72;6276000;22;20729;-73
2022/08/08 05:46:16;;;;;;;16.27;9.10;;;;;;;27.80;50.76;97111.75;6277170;22;20198;-74
2022/08/08 05:48:44;;;;;;;12.97;5.60;;;;;;;28.03;50.19;97105.47;6250782;22;20253;-75
2022/08/08 05:51:22;;;;;;;10.53;5.43;;;;;;;28.13;48.37;97121.22;6276577;22;20182;-73
2022/08/08 05:53:54;;;;;;;8.43;6.60;;;;;;;27.95;49.00;97117.94;6302709;22;20170;-75
2022/08/08 05:56:43;;;;;;;9.70;5.40;;;;;;;27.96;48.77;97109.84;6276746;22;20191;-75
2022/08/08 05:59:21;;;;;;;12.83;6.03;;;;;;;28.17;49.40;97117.19;6276640;22;20239;-76
2022/08/08 06:05:13;;;;;;;8.00;4.60;;;;;;;28.10;45.27;97118.91;6276879;22;21047;-77
2022/08/08 06:08:01;;;;;;;8.33;4.60;;;;;;;28.17;45.30;97118.00;6276688;22;20173;-76
2022/08/08 06:10:50;;;;;;;8.63;4.97;;;;;;;28.56;44.23;97119.75;6259178;22;20208;-77
2022/08/08 06:13:19;;;;;;;10.90;5.10;;;;;;;28.42;44.50;97118.66;6251773;22;20178;-75
2022/08/08 06:15:57;;;;;;;11.43;6.60;;;;;;;28.54;43.40;97111.06;6280616;22;20253;-76
2022/08/08 06:18:44;;;;;;;5.87;3.37;;;;;;;28.37;41.68;97121.03;6276854;22;20260;-76
2022/08/08 06:21:18;;;;;;;7.57;3.40;;;;;;;28.57;40.91;97121.38;6251015;22;20179;-75
2022/08/08 06:24:00;;;;;;;4.60;3.23;;;;;;;28.61;39.55;97120.84;6276422;22;20222;-76
2022/08/08 06:26:42;;;;;;;5.53;2.90;;;;;;;28.71;39.64;97123.25;6277852;22;20198;-75
2022/08/08 06:30:03;;;;;;;6.00;3.10;;;;;;;28.60;35.63;97121.03;6279939;22;21108;-76
2022/08/08 06:32:54;;;;;;;13.63;2.97;;;;;;;28.61;37.45;97134.19;6219669;22;20179;-75
2022/08/08 06:35:25;;;;;;;4.90;2.40;;;;;;;28.71;34.58;97132.09;6253589;22;20552;-77
2022/08/08 06:38:19;;;;;;;6.53;2.43;;;;;;;28.77;35.33;97133.22;6258150;22;20270;-76
2022/08/08 06:41:03;;;;;;;6.30;2.33;;;;;;;28.82;35.54;97134.34;6278660;22;20197;-75
2022/08/08 06:43:36;;;;;;;4.23;2.50;;;;;;;28.96;36.57;97136.19;6280999;22;20158;-74
2022/08/08 06:46:15;;;;;;;4.00;2.23;;;;;;;28.81;35.15;97138.00;6279932;22;20708;-71
2022/08/08 06:48:55;;;;;;;5.13;2.60;;;;;;;28.98;34.85;97147.50;6255241;22;20259;-72
2022/08/08 06:51:27;;;;;;;5.80;2.40;;;;;;;28.97;35.51;97140.50;6255865;22;20162;-77
2022/08/08 06:54:27;;;;;;;3.60;2.30;;;;;;;28.84;34.73;97148.31;6259085;22;20166;-74
2022/08/08 06:56:55;;;;;;;5.90;2.47;;;;;;;28.81;35.62;97132.66;6184824;22;20167;-74
2022/08/08 06:59:22;;;;;;;5.87;2.33;;;;;;;28.93;35.84;97146.41;6238975;22;20178;-74
2022/08/08 07:02:04;;;;;;;8.80;2.80;;;;;;;28.97;36.77;97156.50;6288887;22;20167;-74
2022/08/08 07:05:08;;;;;;;4.80;2.77;;;;;;;29.02;36.45;97144.50;6309425;22;20166;-73
2022/08/08 07:08:08;;;;;;;4.23;2.27;;;;;;;29.04;36.42;97145.13;6285058;22;20396;-74
2022/08/08 07:10:41;;;;;;;3.47;2.70;;;;;;;29.21;35.64;97143.97;6307789;22;20167;-74
2022/08/08 07:13:17;;;;;;;4.80;2.93;;;;;;;29.07;35.79;97134.09;6257726;22;20563;-74
2022/08/08 07:16:11;;;;;;;4.83;2.53;;;;;;;29.26;36.38;97158.44;6285359;22;20178;-74
2022/08/08 07:18:56;;;;;;;4.07;2.47;;;;;;;29.06;36.85;97143.91;6280582;22;20513;-74
2022/08/08 07:21:33;;;;;;;2.60;2.30;;;;;;;29.07;35.85;97139.41;6254671;22;20633;-74
2022/08/08 07:24:09;;;;;;;3.63;2.30;;;;;;;29.23;36.62;97142.78;6176922;22;20162;-74
2022/08/08 07:26:51;;;;;;;4.63;2.40;;;;;;;29.32;35.48;97159.53;6279252;22;20194;-73
2022/08/08 07:29:21;;;;;;;3.70;2.30;;;;;;;29.18;36.10;97131.00;6277856;22;20234;-72
2022/08/08 07:32:09;;;;;;;5.73;2.70;;;;;;;29.44;35.83;97156.22;6260482;22;20163;-72
2022/08/08 07:34:48;;;;;;;8.53;3.10;;;;;;;29.41;35.84;97147.72;6256003;22;20235;-73
2022/08/08 07:37:35;;;;;;;3.60;2.47;;;;;;;29.59;35.44;97150.88;6256209;22;20166;-74
2022/08/08 07:40:32;;;;;;;5.40;2.53;;;;;;;29.62;35.83;97147.81;6258814;22;20688;-74
2022/08/08 07:43:09;;;;;;;3.97;2.33;;;;;;;29.66;35.22;97141.09;6277107;22;20172;-74
2022/08/08 07:45:43;;;;;;;8.70;2.53;;;;;;;29.66;35.25;97155.28;6277176;22;20221;-73
2022/08/08 07:48:35;;;;;;;4.70;2.23;;;;;;;29.52;34.29;97125.94;6279496;22;20159;-75
2022/08/08 07:51:04;;;;;;;4.53;2.27;;;;;;;29.62;35.12;97156.66;6278126;22;20232;-75
2022/08/08 07:54:13;;;;;;;2.33;2.13;;;;;;;29.68;34.97;97158.59;6126883;22;20190;-72
2022/08/08 07:57:35;;;;;;;6.13;2.30;;;;;;;29.50;34.33;97138.63;6150125;22;20162;-76
2022/08/08 08:00:13;;;;;;;6.27;2.40;;;;;;;29.28;34.39;97086.19;6128460;22;20174;-72
2022/08/08 08:03:33;;;;;;;5.77;2.33;;;;;;;29.45;34.19;97085.78;6129207;22;20725;-78
2022/08/08 08:06:18;;;;;;;6.00;2.57;;;;;;;29.58;34.05;97170.56;6149814;22;20201;-74
2022/08/08 08:09:05;;;;;;;3.20;1.90;;;;;;;29.54;32.39;97166.59;6150750;22;20195;-73
2022/08/08 08:11:41;;;;;;;4.50;2.03;;;;;;;29.69;33.46;97148.75;6100663;22;20179;-75
2022/08/08 08:15:01;;;;;;;6.13;2.30;;;;;;;29.92;34.00;97157.50;6153389;22;20170;-74
2022/08/08 08:17:41;;;;;;;6.33;2.67;;;;;;;29.63;32.91;97154.81;6125514;22;20253;-73
2022/08/08 08:20:28;;;;;;;8.33;3.27;;;;;;;29.99;33.57;97160.22;6124946;22;20176;-76
2022/08/08 08:22:58;;;;;;;4.77;2.50;;;;;;;29.93;33.90;97167.16;6147542;22;20188;-75
2022/08/08 08:25:26;;;;;;;4.50;3.00;;;;;;;30.01;34.36;97159.00;6171601;22;20507;-76
2022/08/08 08:28:13;;;;;;;7.00;2.33;;;;;;;29.90;35.19;97172.03;6146870;22;20176;-74
2022/08/08 08:30:53;;;;;;;4.70;2.50;;;;;;;29.70;34.44;97177.09;6146141;22;20563;-74
2022/08/08 08:33:24;;;;;;;5.67;3.10;;;;;;;29.67;34.06;97162.28;6121270;22;20228;-75
2022/08/08 08:35:52;;;;;;;7.03;4.47;;;;;;;29.89;35.13;97149.84;6122403;23;20198;-74
2022/08/08 08:38:41;;;;;;;5.63;3.40;;;;;;;30.35;34.73;97155.72;6121978;22;20177;-74
2022/08/08 08:41:20;;;;;;;4.80;3.17;;;;;;;30.50;33.92;97159.97;6170980;22;20211;-74
2022/08/08 08:43:53;;;;;;;4.77;2.80;;;;;;;30.36;31.97;97155.53;6145820;22;20251;-73
2022/08/08 08:46:39;;;;;;;5.63;2.97;;;;;;;30.59;30.71;97165.19;6150575;22;20288;-73
2022/08/08 08:49:13;;;;;;;4.73;2.80;;;;;;;30.50;31.70;97176.03;6146366;22;20170;-73
2022/08/08 08:51:43;;;;;;;3.37;2.07;;;;;;;30.39;30.27;97141.78;6145178;22;20192;-73
2022/08/08 08:54:20;;;;;;;4.47;2.50;;;;;;;30.54;32.01;97171.94;6121974;22;20170;-73
2022/08/08 08:56:53;;;;;;;5.13;2.77;;;;;;;30.69;31.74;97160.34;6123141;23;20174;-73
2022/08/08 08:59:23;;;;;;;2.97;2.57;;;;;;;30.68;30.41;97161.38;6121133;22;20179;-74
2022/08/08 09:02:20;;;;;;;3.53;2.77;;;;;;;30.64;30.57;97154.75;6171395;22;20241;-73
2022/08/08 09:04:55;;;;;;;5.90;3.37;;;;;;;30.49;31.61;97149.47;6146209;22;20186;-72
2022/08/08 09:07:28;;;;;;;4.57;2.90;;;;;;;30.26;34.41;97117.56;6145769;22;20208;-72
2022/08/08 09:10:17;;;;;;;3.77;2.80;;;;;;;30.54;34.20;97150.56;6121232;23;20229;-73
2022/08/08 09:12:49;;;;;;;4.57;3.00;;;;;;;30.85;31.61;97144.09;6122797;23;20228;-73
2022/08/08 09:15:18;;;;;;;9.10;3.77;;;;;;;30.75;32.42;97156.94;6146845;22;20179;-73
2022/08/08 09:18:06;;;;;;;5.50;2.87;;;;;;;30.80;32.30;97171.38;6146259;22;20166;-75
2022/08/08 09:20:38;;;;;;;5.13;2.60;;;;;;;30.49;31.91;97152.16;6145866;22;20166;-74
2022/08/08 09:23:28;;;;;;;4.87;2.80;;;;;;;30.82;31.17;97153.28;6146296;22;20615;-75
2022/08/08 09:26:23;;;;;;;8.37;3.47;;;;;;;30.75;31.94;97149.72;6146411;22;20194;-72
2022/08/08 09:29:00;;;;;;;3.10;2.60;;;;;;;30.82;32.53;97153.28;6099134;22;20646;-74
2022/08/08 09:31:59;;;;;;;5.40;2.63;;;;;;;31.01;32.16;97159.84;6148246;22;20166;-74
2022/08/08 09:34:34;;;;;;;5.03;3.33;;;;;;;30.63;32.55;97156.59;6124261;22;20610;-75
2022/08/08 09:37:11;;;;;;;5.07;2.70;;;;;;;30.16;32.87;97151.78;6124167;22;20278;-76
2022/08/08 09:40:08;;;;;;;6.07;2.80;;;;;;;30.42;32.56;97130.72;6146928;22;20173;-72
2022/08/08 09:42:45;;;;;;;6.13;3.20;;;;;;;30.76;34.27;97150.53;6146170;22;20174;-72
2022/08/08 09:45:20;;;;;;;5.93;2.77;;;;;;;30.89;31.51;97145.34;6147832;22;20163;-73
2022/08/08 09:48:09;;;;;;;4.90;2.83;;;;;;;30.93;32.46;97128.72;6126089;22;20258;-73
2022/08/08 09:50:52;;;;;;;6.20;3.57;;;;;;;30.76;33.99;97142.53;6227435;22;20174;-72
2022/08/08 09:53:28;;;;;;;3.10;2.77;;;;;;;30.99;33.54;97124.44;6122303;22;20231;-73
2022/08/08 09:56:16;;;;;;;4.53;3.10;;;;;;;30.99;33.25;97137.81;6172251;22;20210;-73
2022/08/08 09:59:00;;;;;;;6.60;2.63;;;;;;;31.06;31.77;97144.00;6244820;22;20498;-72
2022/08/08 10:01:37;;;;;;;5.37;3.60;;;;;;;31.15;32.15;97116.09;6172893;22;20167;-73
2022/08/08 10:04:26;;;;;;;3.97;2.90;;;;;;;31.29;32.26;97128.53;6173828;22;20167;-73
2022/08/08 10:07:16;;;;;;;4.30;2.83;;;;;;;31.16;33.31;97118.56;6277490;22;20202;-74
2022/08/08 10:09:50;;;;;;;8.47;2.83;;;;;;;30.65;31.32;97102.91;6173849;22;20163;-73
2022/08/08 10:12:34;;;;;;;3.00;2.60;;;;;;;30.91;32.87;97121.91;6278105;22;20202;-72
2022/08/08 10:15:08;;;;;;;3.30;2.57;;;;;;;30.98;31.35;97114.72;6173868;22;20679;-73
2022/08/08 10:17:46;;;;;;;3.10;2.90;;;;;;;31.02;31.35;97116.00;6277287;22;20174;-73
2022/08/08 10:21:07;;;;;;;7.13;2.60;;;;;;;30.72;32.77;97119.88;6259558;22;20182;-74
2022/08/08 10:24:01;;;;;;;2.93;2.40;;;;;;;30.66;32.04;97107.25;6173230;22;20194;-73
2022/08/08 10:26:31;;;;;;;6.10;3.13;;;;;;;30.63;32.03;97110.31;6276925;22;20516;-73
2022/08/08 10:29:37;;;;;;;3.60;2.80;;;;;;;30.76;32.21;97102.41;6173876;22;20177;-73
2022/08/08 10:32:34;;;;;;;3.70;2.50;;;;;;;30.58;31.26;97067.28;6173375;22;20174;-73
2022/08/08 10:35:15;;;;;;;3.60;2.87;;;;;;;30.91;31.22;97087.97;6174143;22;20650;-73
2022/08/08 10:38:05;;;;;;;5.50;2.70;;;;;;;30.58;31.26;97084.19;6173863;22;20181;-73
2022/08/08 10:40:37;;;;;;;5.57;2.93;;;;;;;30.93;31.35;97099.28;6173396;22;20170;-73
2022/08/08 10:43:05;;;;;;;5.23;3.17;;;;;;;30.94;30.88;97105.44;6173756;22;20171;-73
2022/08/08 10:45:46;;;;;;;3.83;2.90;;;;;;;31.11;29.91;97122.84;6172855;22;20167;-74
2022/08/08 10:48:32;;;;;;;4.03;2.50;;;;;;;30.95;30.22;97107.94;6172987;22;20163;-74
2022/08/08 10:51:13;;;;;;;5.70;3.20;;;;;;;30.76;30.37;97078.34;6252146;22;20174;-74
2022/08/08 10:53:45;;;;;;;4.90;2.87;;;;;;;30.84;30.35;97083.53;6277858;22;20335;-74
2022/08/08 10:56:31;;;;;;;5.10;2.93;;;;;;;31.04;30.23;97081.84;6174333;22;20194;-74
2022/08/08 10:59:08;;;;;;;3.43;2.70;;;;;;;31.10;31.12;97081.03;6173696;22;20632;-75
2022/08/08 11:01:37;;;;;;;3.93;2.63;;;;;;;31.04;30.58;97088.03;6173979;22;20245;-74
2022/08/08 11:04:08;;;;;;;5.23;2.87;;;;;;;31.08;29.68;97064.38;6175021;22;20163;-75
2022/08/08 11:06:37;;;;;;;3.07;2.67;;;;;;;30.86;30.69;97081.50;6275263;22;20658;-75
2022/08/08 11:09:13;;;;;;;5.83;3.03;;;;;;;31.03;30.17;97088.22;6277251;22;20189;-75
2022/08/08 11:11:51;;;;;;;3.63;3.13;;;;;;;31.28;29.90;97076.03;6277311;22;20179;-75
2022/08/08 11:15:07;;;;;;;4.93;2.67;;;;;;;31.60;29.99;97069.19;6173938;22;20162;-74
2022/08/08 11:17:35;;;;;;;4.83;3.13;;;;;;;31.63;29.75;97044.69;6245807;22;20642;-75
2022/08/08 11:20:27;;;;;;;5.27;3.43;;;;;;;31.04;30.63;97071.97;6277294;22;20650;-78
2022/08/08 11:22:56;;;;;;;4.87;3.07;;;;;;;30.73;30.15;97076.88;6173445;22;20670;-72
2022/08/08 11:25:28;;;;;;;3.47;2.80;;;;;;;30.65;30.32;97070.84;6173492;22;20583;-75
2022/08/08 11:28:23;;;;;;;6.50;3.63;;;;;;;30.72;30.97;97066.38;6277228;22;20175;-78
2022/08/08 11:30:56;;;;;;;6.17;3.20;;;;;;;30.60;30.79;97049.22;6273251;22;20185;-76
2022/08/08 11:33:26;;;;;;;6.80;3.00;;;;;;;30.88;30.84;97077.63;6173134;22;20167;-76
2022/08/08 11:36:14;;;;;;;4.50;3.60;;;;;;;30.86;30.34;97068.16;6173386;22;20163;-73
2022/08/08 11:38:45;;;;;;;6.87;5.00;;;;;;;31.03;29.42;97058.78;6303259;22;20571;-77
2022/08/08 11:41:26;;;;;;;4.10;3.23;;;;;;;31.16;29.59;97058.88;6276109;22;20178;-74
2022/08/08 11:44:00;;;;;;;5.07;3.10;;;;;;;31.22;29.91;97063.44;6227468;22;20681;-76
2022/08/08 11:46:29;;;;;;;4.00;2.83;;;;;;;31.07;30.35;97054.69;6276653;22;20277;-75
2022/08/08 11:49:07;;;;;;;5.40;3.20;;;;;;;31.07;30.84;97049.34;6276880;22;20170;-76
2022/08/08 11:51:37;;;;;;;3.40;2.97;;;;;;;31.00;30.53;97051.97;6277223;22;20621;-76
2022/08/08 11:54:30;;;;;;;4.17;2.80;;;;;;;30.82;30.43;97050.81;6264111;22;20649;-75
2022/08/08 11:57:10;;;;;;;6.50;3.13;;;;;;;30.74;31.18;97058.97;6303466;22;20533;-73
2022/08/08 12:00:16;;;;;;;5.77;3.90;;;;;;;31.09;30.53;97053.47;6330210;22;20623;-75
2022/08/08 12:02:54;;;;;;;3.77;2.77;;;;;;;31.10;30.68;97065.00;6264228;22;20487;-73
2022/08/08 12:05:37;;;;;;;6.17;3.40;;;;;;;31.23;31.28;97049.00;6277685;22;20198;-73
2022/08/08 12:08:04;;;;;;;4.63;3.50;;;;;;;31.22;30.96;97044.69;6330929;22;20195;-73
2022/08/08 12:10:32;;;;;;;4.67;2.77;;;;;;;30.97;31.58;97049.72;6303413;22;20601;-74
2022/08/08 12:13:01;;;;;;;4.00;2.87;;;;;;;30.91;31.19;97047.81;6330415;22;20164;-74
2022/08/08 12:15:32;;;;;;;6.10;3.00;;;;;;;30.80;31.34;97052.84;6276710;22;20189;-74
2022/08/08 12:18:24;;;;;;;3.97;3.07;;;;;;;30.61;32.51;97050.84;6331614;22;20247;-74
2022/08/08 12:20:54;;;;;;;6.30;3.37;;;;;;;30.50;33.23;97066.41;6330801;22;20228;-72
2022/08/08 12:23:40;;;;;;;5.97;3.40;;;;;;;30.41;33.39;97070.25;6330930;22;20238;-73
2022/08/08 12:26:44;;;;;;;4.87;3.37;;;;;;;30.37;33.24;97066.31;6330532;22;20269;-73
2022/08/08 12:29:31;;;;;;;5.13;3.20;;;;;;;30.40;33.92;97057.91;6303174;22;20175;-73
2022/08/08 12:32:16;;;;;;;3.93;3.60;;;;;;;30.38;33.52;97043.06;6275760;22;20167;-73
2022/08/08 12:34:57;;;;;;;8.80;3.87;;;;;;;30.50;33.21;97052.22;6329942;22;20227;-73
2022/08/08 12:37:46;;;;;;;3.70;3.10;;;;;;;30.52;33.64;97042.97;6302040;22;20164;-75
2022/08/08 12:40:39;;;;;;;4.20;3.40;;;;;;;30.44;34.46;97040.44;6329171;22;20287;-75
2022/08/08 12:43:31;;;;;;;7.50;3.20;;;;;;;30.76;33.66;97040.88;6280586;22;20174;-76
2022/08/08 12:46:21;;;;;;;3.70;3.23;;;;;;;31.05;32.64;97030.00;6302109;22;20160;-75
2022/08/08 12:48:58;;;;;;;4.40;3.47;;;;;;;31.13;31.22;97041.34;6330298;22;20228;-76
2022/08/08 12:51:49;;;;;;;5.60;2.90;;;;;;;31.17;31.30;97029.22;6330097;22;20539;-75
2022/08/08 12:54:33;;;;;;;4.73;3.70;;;;;;;31.39;30.93;97021.09;6272766;22;20181;-76
2022/08/08 12:57:22;;;;;;;4.80;3.30;;;;;;;31.38;30.76;97020.25;6173759;22;20273;-76
2022/08/08 12:59:52;;;;;;;4.13;2.90;;;;;;;31.30;31.21;97017.75;6276168;22;20171;-76
2022/08/08 13:02:41;;;;;;;3.50;3.20;;;;;;;31.60;31.55;97029.00;6276710;22;20163;-75
2022/08/08 13:05:21;;;;;;;6.27;3.97;;;;;;;31.78;31.61;97019.38;6252861;22;20191;-75
2022/08/08 13:08:15;;;;;;;3.90;3.60;;;;;;;32.04;31.06;97027.50;6257827;22;20194;-75
2022/08/08 13:10:54;;;;;;;3.63;3.10;;;;;;;31.95;32.00;97020.69;6173236;22;20169;-76
2022/08/08 13:13:31;;;;;;;5.70;3.87;;;;;;;31.66;31.92;97030.88;6173136;22;20673;-75
2022/08/08 13:16:17;;;;;;;4.83;3.77;;;;;;;31.32;32.78;97016.50;6172599;22;20166;-74